Time;durP1;ratioP1;P1;durP2;ratioP2;P2;SDS_P1;SDS_P2;PMS_P1;PMS_P2;Temp;Humidity;BMP_temperature;BMP_pressure;BME280_temperature;BME280_humidity;BME280_pressure;Samples;Min_cycle;Max_cycle;Signal;HPM_P1;HPM_P2
2023/03/11 00:02:17;;;;;;;2.90;2.60;;;;;;;9.23;72.09;97525.64;131687;1254;114661;-69
2023/03/11 00:05:29;;;;;;;2.90;1.90;;;;;;;9.24;72.07;97520.89;131657;1254;114693;-68
2023/03/11 00:08:32;;;;;;;3.20;1.80;;;;;;;9.24;72.03;97519.48;131617;1254;127740;-68
2023/03/11 00:11:35;;;;;;;3.10;1.80;;;;;;;9.24;72.04;97516.14;131639;1254;113314;-68
2023/03/11 00:14:38;;;;;;;2.90;2.10;;;;;;;9.25;71.97;97518.90;131684;1254;114709;-68
2023/03/11 00:17:41;;;;;;;3.60;2.30;;;;;;;9.25;71.99;97521.93;131742;1254;115331;-68
2023/03/11 00:20:47;;;;;;;4.20;2.10;;;;;;;9.23;71.95;97519.59;131640;1254;113726;-68
2023/03/11 00:23:49;;;;;;;4.50;2.20;;;;;;;9.23;71.92;97519.79;131673;1254;129050;-67
2023/03/11 00:26:52;;;;;;;5.10;2.50;;;;;;;9.22;71.91;97520.89;131729;1254;113168;-68
2023/03/11 00:29:55;;;;;;;4.90;2.40;;;;;;;9.22;71.77;97520.58;131628;1253;114722;-67
2023/03/11 00:32:59;;;;;;;7.70;2.60;;;;;;;9.22;71.64;97526.42;131667;1253;114698;-67
2023/03/11 00:36:01;;;;;;;5.80;2.60;;;;;;;9.21;71.66;97524.73;131671;1254;114556;-68
2023/03/11 00:39:08;;;;;;;3.30;1.90;;;;;;;9.21;71.73;97522.92;131640;1253;114644;-68
2023/03/11 00:42:10;;;;;;;4.40;2.50;;;;;;;9.20;71.60;97528.17;131648;1254;115324;-69
2023/03/11 00:45:15;;;;;;;2.90;1.90;;;;;;;9.21;71.60;97522.81;131700;1257;114706;-69
2023/03/11 00:48:18;;;;;;;4.20;2.30;;;;;;;9.21;71.59;97520.29;131446;1253;113242;-69
2023/03/11 00:51:20;;;;;;;4.40;2.10;;;;;;;9.19;71.51;97512.60;131657;1254;114702;-69
2023/03/11 00:54:23;;;;;;;3.00;2.10;;;;;;;9.18;71.40;97508.44;131639;1257;114750;-69
2023/03/11 00:57:28;;;;;;;3.20;1.70;;;;;;;9.16;71.19;97510.58;131578;1254;114709;-68
2023/03/11 01:00:31;;;;;;;2.30;1.60;;;;;;;9.13;71.20;97507.45;131663;1257;113445;-67
2023/03/11 01:03:34;;;;;;;2.30;1.40;;;;;;;9.10;71.22;97506.80;131641;1254;113369;-67
2023/03/11 01:06:38;;;;;;;4.90;2.00;;;;;;;9.09;70.95;97516.91;131344;1263;114690;-68
2023/03/11 01:09:40;;;;;;;2.40;1.60;;;;;;;9.06;71.04;97514.09;131637;1253;114431;-70
2023/03/11 01:12:43;;;;;;;5.90;1.80;;;;;;;9.06;71.33;97519.63;131629;1253;114715;-69
2023/03/11 01:15:46;;;;;;;1.80;1.30;;;;;;;9.03;71.27;97526.30;131634;1253;114562;-69
2023/03/11 01:18:49;;;;;;;2.10;1.30;;;;;;;8.99;71.32;97535.38;131700;1253;114376;-70
2023/03/11 01:21:52;;;;;;;2.50;1.50;;;;;;;8.92;71.57;97539.36;131592;1257;114764;-71
2023/03/11 01:24:54;;;;;;;1.70;1.00;;;;;;;8.85;71.66;97543.23;131315;1257;566628;-71
2023/03/11 01:27:58;;;;;;;0.40;0.40;;;;;;;8.75;71.53;97545.33;131399;1254;127720;-71
2023/03/11 01:31:01;;;;;;;0.60;0.60;;;;;;;8.62;71.52;97543.34;131661;1253;114481;-70
2023/03/11 01:34:03;;;;;;;0.90;0.60;;;;;;;8.53;71.67;97547.35;131662;1257;114777;-70
2023/03/11 01:37:06;;;;;;;1.50;0.60;;;;;;;8.43;71.45;97550.27;131567;1253;114641;-71
2023/03/11 01:40:16;;;;;;;0.60;0.60;;;;;;;8.33;71.70;97549.70;131655;1254;116495;-71
2023/03/11 01:43:42;;;;;;;0.90;0.80;;;;;;;8.26;71.52;97550.88;131530;1257;130170;-70
2023/03/11 01:46:51;;;;;;;1.00;0.70;;;;;;;8.17;71.80;97555.82;131601;1254;115231;-69
2023/03/11 01:49:54;;;;;;;0.70;0.50;;;;;;;8.08;71.88;97552.84;131663;1257;114540;-69
2023/03/11 01:52:56;;;;;;;0.80;0.60;;;;;;;7.99;72.03;97551.98;131593;1254;114698;-69
2023/03/11 01:56:02;;;;;;;1.60;0.80;;;;;;;7.92;72.19;97552.95;131671;1253;115398;-68
2023/03/11 01:59:07;;;;;;;2.00;0.80;;;;;;;7.86;71.77;97552.21;131370;1257;127909;-69
2023/03/11 02:02:35;;;;;;;1.90;0.70;;;;;;;7.80;72.24;97554.99;131592;1253;114731;-70
2023/03/11 02:05:39;;;;;;;0.90;0.70;;;;;;;7.74;72.56;97554.07;131677;1254;114687;-68
2023/03/11 02:08:43;;;;;;;1.10;0.90;;;;;;;7.71;72.35;97555.36;131708;1254;115234;-69
2023/03/11 02:11:46;;;;;;;0.80;0.80;;;;;;;7.67;72.42;97553.76;131676;1254;114692;-69
2023/03/11 02:14:50;;;;;;;1.00;0.40;;;;;;;7.64;72.41;97551.90;131660;1255;114697;-69
2023/03/11 02:17:55;;;;;;;1.00;0.90;;;;;;;7.61;72.40;97555.86;131387;1254;116418;-69
2023/03/11 02:21:13;;;;;;;0.60;0.50;;;;;;;7.58;72.89;97555.36;131671;1254;114645;-69
2023/03/11 02:24:35;;;;;;;1.50;0.60;;;;;;;7.58;72.75;97560.54;131680;1257;115014;-69
2023/03/11 02:27:40;;;;;;;2.20;0.70;;;;;;;7.52;72.78;97561.60;131668;1253;114814;-69
2023/03/11 02:30:44;;;;;;;0.60;0.60;;;;;;;7.44;72.57;97561.83;131620;1253;127745;-70
2023/03/11 02:33:48;;;;;;;1.00;0.60;;;;;;;7.37;73.03;97564.17;131643;1253;114693;-70
2023/03/11 02:36:51;;;;;;;1.20;0.40;;;;;;;7.33;72.99;97561.83;131454;1257;113470;-69
2023/03/11 02:39:55;;;;;;;0.50;0.50;;;;;;;7.27;72.69;97562.09;131652;1254;114750;-70
2023/03/11 02:42:59;;;;;;;0.40;0.40;;;;;;;7.24;72.99;97561.48;131716;1254;113330;-69
2023/03/11 02:46:04;;;;;;;1.70;0.70;;;;;;;7.19;72.79;97559.58;131450;1253;127754;-70
2023/03/11 02:49:06;;;;;;;1.90;0.60;;;;;;;7.14;73.21;97559.08;131552;1253;115224;-69
2023/03/11 02:52:11;;;;;;;5.70;1.00;;;;;;;7.11;72.80;97558.43;131694;1257;113458;-70
2023/03/11 02:55:16;;;;;;;0.50;0.50;;;;;;;7.09;73.17;97554.98;131497;1254;114965;-70
2023/03/11 02:58:19;;;;;;;1.50;0.60;;;;;;;7.09;73.45;97555.04;131667;1253;114047;-70
2023/03/11 03:01:23;;;;;;;0.60;0.60;;;;;;;7.08;73.61;97554.92;131437;1254;114755;-70
2023/03/11 03:04:25;;;;;;;0.60;0.60;;;;;;;7.07;73.48;97561.75;131689;1254;114869;-70
2023/03/11 03:07:28;;;;;;;1.00;0.70;;;;;;;7.04;73.45;97565.86;131683;1254;114556;-70
2023/03/11 03:10:31;;;;;;;2.00;0.70;;;;;;;7.01;73.45;97568.77;131711;1254;114643;-71
2023/03/11 03:13:35;;;;;;;1.30;0.70;;;;;;;6.96;73.69;97586.52;131669;1253;113274;-70
2023/03/11 03:16:38;;;;;;;0.60;0.60;;;;;;;6.86;72.46;97599.36;131679;1253;114677;-70
2023/03/11 03:19:40;;;;;;;0.80;0.60;;;;;;;6.70;72.25;97616.77;131665;1253;114754;-70
2023/03/11 03:22:43;;;;;;;0.70;0.70;;;;;;;6.56;72.09;97632.18;131660;1253;113242;-71
2023/03/11 03:25:46;;;;;;;0.50;0.50;;;;;;;6.39;71.51;97642.35;131716;1254;114825;-70
2023/03/11 03:28:49;;;;;;;0.60;0.60;;;;;;;6.20;71.30;97653.83;131738;1257;113250;-69
2023/03/11 03:31:52;;;;;;;0.60;0.40;;;;;;;6.05;70.83;97662.23;131750;1253;114719;-70
2023/03/11 03:34:57;;;;;;;0.50;0.40;;;;;;;5.86;70.16;97662.86;131593;1257;127954;-70
2023/03/11 03:38:00;;;;;;;0.40;0.40;;;;;;;5.70;69.98;97664.16;131609;1253;114697;-70
2023/03/11 03:41:07;;;;;;;0.30;0.30;;;;;;;5.53;69.64;97659.38;131727;1253;114801;-70
2023/03/11 03:44:11;;;;;;;0.30;0.30;;;;;;;5.37;69.57;97667.27;131481;1253;113429;-71
2023/03/11 03:47:14;;;;;;;0.30;0.30;;;;;;;5.20;69.30;97674.10;131663;1253;114722;-70
2023/03/11 03:50:17;;;;;;;0.70;0.40;;;;;;;5.07;69.33;97681.86;131397;1254;114707;-70
2023/03/11 03:53:21;;;;;;;1.10;0.50;;;;;;;4.95;69.28;97684.66;131661;1254;114790;-70
2023/03/11 03:56:24;;;;;;;1.80;0.30;;;;;;;4.85;69.27;97689.27;131733;1257;114702;-70
2023/03/11 03:59:27;;;;;;;0.20;0.20;;;;;;;4.74;69.31;97694.08;131685;1253;114699;-69
2023/03/11 04:02:30;;;;;;;0.20;0.20;;;;;;;4.64;69.14;97702.27;131456;1254;114709;-69
2023/03/11 04:05:33;;;;;;;0.60;0.30;;;;;;;4.57;69.18;97707.55;131678;1257;115310;-70
2023/03/11 04:08:36;;;;;;;0.30;0.30;;;;;;;4.49;69.20;97714.47;132441;1253;115424;-69
2023/03/11 04:11:38;;;;;;;0.40;0.40;;;;;;;4.42;69.20;97707.14;131670;1254;113368;-70
2023/03/11 04:14:41;;;;;;;0.30;0.30;;;;;;;4.35;69.19;97717.52;131718;1254;114728;-69
2023/03/11 04:17:44;;;;;;;0.30;0.20;;;;;;;4.29;69.30;97721.77;131468;1257;114825;-69
2023/03/11 04:20:46;;;;;;;0.40;0.40;;;;;;;4.23;69.30;97730.95;131663;1253;115187;-68
2023/03/11 04:23:49;;;;;;;0.40;0.40;;;;;;;4.19;69.61;97735.63;131699;1253;113173;-68
2023/03/11 04:26:53;;;;;;;0.30;0.30;;;;;;;4.16;69.59;97737.23;131688;1253;116111;-69
2023/03/11 04:29:55;;;;;;;0.50;0.40;;;;;;;4.09;69.31;97732.25;131699;1257;113166;-69
2023/03/11 04:32:58;;;;;;;0.80;0.50;;;;;;;3.99;69.42;97737.98;131653;1257;114728;-69
2023/03/11 04:36:07;;;;;;;0.30;0.30;;;;;;;3.91;69.26;97737.95;131754;1254;114696;-69
2023/03/11 04:39:10;;;;;;;0.40;0.40;;;;;;;3.83;69.25;97738.83;131525;1254;114479;-69
2023/03/11 04:42:13;;;;;;;0.30;0.30;;;;;;;3.74;69.33;97739.77;131645;1253;114705;-69
2023/03/11 04:45:17;;;;;;;0.70;0.40;;;;;;;3.64;69.46;97747.04;131661;1253;114123;-69
2023/03/11 04:48:20;;;;;;;0.60;0.60;;;;;;;3.59;69.69;97752.53;131559;1258;114658;-69
2023/03/11 04:51:22;;;;;;;0.70;0.60;;;;;;;3.53;69.91;97756.56;131561;1257;115169;-69
2023/03/11 04:54:25;;;;;;;0.40;0.40;;;;;;;3.47;70.03;97754.81;131689;1253;114776;-69
2023/03/11 04:57:27;;;;;;;0.70;0.60;;;;;;;3.40;70.04;97755.63;131760;1253;114645;-69
2023/03/11 05:00:30;;;;;;;0.50;0.50;;;;;;;3.33;70.29;97754.25;131644;1254;128826;-69
2023/03/11 05:03:34;;;;;;;0.60;0.50;;;;;;;3.26;70.27;97763.18;131657;1253;115234;-68
2023/03/11 05:06:36;;;;;;;0.60;0.60;;;;;;;3.21;70.45;97769.46;131712;1257;113459;-69
2023/03/11 05:09:39;;;;;;;2.90;0.70;;;;;;;3.16;70.60;97775.02;131703;1253;114719;-69
2023/03/11 05:12:43;;;;;;;0.60;0.60;;;;;;;3.11;70.88;97778.88;131676;1253;114658;-69
2023/03/11 05:15:47;;;;;;;1.70;0.70;;;;;;;3.06;70.99;97783.59;131543;1258;114761;-69
2023/03/11 05:18:50;;;;;;;3.10;1.00;;;;;;;3.00;71.06;97793.07;131696;1253;115225;-69
2023/03/11 05:21:53;;;;;;;1.00;0.90;;;;;;;2.96;71.29;97794.19;131694;1254;114808;-69
2023/03/11 05:24:56;;;;;;;2.00;0.90;;;;;;;2.91;71.46;97795.91;131701;1255;114128;-69
2023/03/11 05:27:58;;;;;;;0.80;0.80;;;;;;;2.87;71.59;97800.92;131620;1253;114547;-70
2023/03/11 05:31:02;;;;;;;1.30;0.80;;;;;;;2.82;71.83;97804.70;131660;1253;115285;-69
2023/03/11 05:34:05;;;;;;;2.70;0.80;;;;;;;2.76;71.89;97809.30;131689;1253;114040;-68
2023/03/11 05:37:08;;;;;;;1.80;1.10;;;;;;;2.70;72.11;97812.63;131522;1253;114651;-69
2023/03/11 05:40:12;;;;;;;0.80;0.80;;;;;;;2.64;72.37;97815.44;131654;1253;115442;-68
2023/03/11 05:43:14;;;;;;;0.90;0.90;;;;;;;2.59;72.44;97823.98;131696;1257;114652;-69
2023/03/11 05:46:19;;;;;;;1.90;1.00;;;;;;;2.54;72.36;97827.29;131670;1253;114713;-69
2023/03/11 05:49:22;;;;;;;1.10;0.90;;;;;;;2.50;72.61;97834.56;131695;1253;115208;-69
2023/03/11 05:52:25;;;;;;;1.20;1.00;;;;;;;2.47;72.85;97840.89;131643;1253;114657;-73
2023/03/11 05:55:28;;;;;;;1.10;1.00;;;;;;;2.45;72.96;97839.27;131727;1253;115300;-72
2023/03/11 05:58:32;;;;;;;1.00;1.00;;;;;;;2.43;72.99;97845.00;131764;1253;114670;-70
2023/03/11 06:01:35;;;;;;;1.20;1.10;;;;;;;2.39;73.08;97847.15;131703;1253;130146;-70
2023/03/11 06:04:38;;;;;;;1.80;1.40;;;;;;;2.35;73.21;97855.67;131542;1254;114755;-69
2023/03/11 06:07:41;;;;;;;2.00;1.20;;;;;;;2.33;73.30;97862.63;132549;1253;114667;-69
2023/03/11 06:10:44;;;;;;;1.20;1.10;;;;;;;2.31;73.63;97867.52;131763;1253;114693;-71
2023/03/11 06:13:47;;;;;;;1.50;1.30;;;;;;;2.26;73.69;97872.30;131695;1253;113171;-69
2023/03/11 06:16:49;;;;;;;1.40;1.30;;;;;;;2.24;73.78;97880.75;131668;1253;114730;-70
2023/03/11 06:19:52;;;;;;;1.50;1.20;;;;;;;2.21;73.86;97885.66;131730;1253;113885;-70
2023/03/11 06:22:55;;;;;;;1.90;1.30;;;;;;;2.18;73.88;97895.36;131709;1253;115327;-70
2023/03/11 06:26:00;;;;;;;1.30;1.20;;;;;;;2.17;74.06;97905.59;131423;1256;113410;-70
2023/03/11 06:29:03;;;;;;;1.40;1.10;;;;;;;2.14;74.24;97911.40;131557;1256;114678;-69
2023/03/11 06:32:06;;;;;;;1.50;1.40;;;;;;;2.13;74.51;97917.05;131503;1256;114710;-69
2023/03/11 06:35:10;;;;;;;1.60;1.10;;;;;;;2.14;74.64;97918.58;131470;1256;129068;-71
2023/03/11 06:38:13;;;;;;;3.40;1.40;;;;;;;2.14;74.65;97925.64;131467;1256;115337;-70
2023/03/11 06:41:16;;;;;;;1.50;1.40;;;;;;;2.12;74.66;97932.44;131526;1260;113238;-70
2023/03/11 06:44:18;;;;;;;1.40;1.30;;;;;;;2.10;74.79;97940.65;131543;1256;114701;-70
2023/03/11 06:47:22;;;;;;;1.80;1.50;;;;;;;2.09;74.78;97954.77;131515;1260;114490;-70
2023/03/11 06:50:25;;;;;;;1.80;1.70;;;;;;;2.11;74.80;97955.05;131496;1260;114687;-71
2023/03/11 06:53:29;;;;;;;1.60;1.20;;;;;;;2.09;75.08;97960.58;131504;1256;114755;-71
2023/03/11 06:56:32;;;;;;;1.80;1.70;;;;;;;2.09;75.12;97968.55;131557;1256;114678;-70
2023/03/11 06:59:35;;;;;;;5.30;1.90;;;;;;;2.08;75.40;97976.48;131542;1256;114719;-70
2023/03/11 07:02:38;;;;;;;2.10;1.90;;;;;;;2.07;75.31;97983.04;131545;1256;114400;-71
2023/03/11 07:05:41;;;;;;;1.70;1.60;;;;;;;2.07;75.69;97995.54;131497;1257;114725;-70
2023/03/11 07:08:46;;;;;;;3.30;2.70;;;;;;;2.08;75.49;98005.89;131515;1256;114702;-68
2023/03/11 07:11:52;;;;;;;2.30;2.10;;;;;;;2.09;75.64;98013.08;131536;1256;114679;-71
2023/03/11 07:14:56;;;;;;;2.40;2.10;;;;;;;2.11;75.87;98024.22;131481;1256;114052;-75
2023/03/11 07:17:59;;;;;;;2.40;2.20;;;;;;;2.13;75.69;98027.28;131515;1256;114766;-71
2023/03/11 07:21:04;;;;;;;2.40;2.20;;;;;;;2.14;75.92;98039.91;131439;1261;127780;-71
2023/03/11 07:24:10;;;;;;;3.00;2.20;;;;;;;2.15;75.85;98045.02;131525;1256;114898;-71
2023/03/11 07:27:14;;;;;;;3.30;2.50;;;;;;;2.17;75.92;98053.16;131651;1256;113136;-72
2023/03/11 07:30:17;;;;;;;4.70;3.00;;;;;;;2.19;76.10;98058.14;131659;1254;114700;-70
2023/03/11 07:33:22;;;;;;;2.80;2.40;;;;;;;2.23;75.97;98071.48;131369;1253;114657;-71
2023/03/11 07:36:27;;;;;;;3.30;3.00;;;;;;;2.26;75.92;98084.71;131658;1256;127563;-70
2023/03/11 07:39:31;;;;;;;4.40;2.80;;;;;;;2.28;76.15;98090.29;131602;1254;114725;-71
2023/03/11 07:42:34;;;;;;;4.50;3.20;;;;;;;2.26;76.12;98097.95;131718;1254;113223;-74
2023/03/11 07:45:37;;;;;;;7.60;2.90;;;;;;;2.28;76.21;98112.11;131549;1253;115055;-71
2023/03/11 07:48:40;;;;;;;4.30;3.10;;;;;;;2.30;76.12;98119.61;131656;1253;114754;-72
2023/03/11 07:51:43;;;;;;;5.00;3.80;;;;;;;2.29;75.91;98128.45;131652;1253;114738;-71
2023/03/11 07:54:46;;;;;;;4.60;3.20;;;;;;;2.29;75.93;98140.75;131699;1253;113180;-72
2023/03/11 07:57:50;;;;;;;3.70;3.00;;;;;;;2.28;76.01;98152.80;131650;1253;114738;-70
2023/03/11 08:00:55;;;;;;;4.50;3.30;;;;;;;2.26;75.93;98164.86;131688;1257;114756;-71
2023/03/11 08:03:58;;;;;;;4.20;3.30;;;;;;;2.24;76.16;98174.30;131673;1254;113971;-71
2023/03/11 08:07:01;;;;;;;4.60;3.20;;;;;;;2.26;76.45;98180.70;131645;1257;115839;-72
2023/03/11 08:10:04;;;;;;;5.40;3.50;;;;;;;2.28;76.51;98189.44;131662;1256;114693;-71
2023/03/11 08:13:07;;;;;;;6.30;3.70;;;;;;;2.30;76.38;98200.09;131755;1253;114818;-71
2023/03/11 08:16:12;;;;;;;5.00;3.40;;;;;;;2.33;76.20;98211.59;131706;1253;114547;-72
2023/03/11 08:19:15;;;;;;;5.80;4.30;;;;;;;2.36;76.43;98229.39;131719;1254;114649;-71
2023/03/11 08:22:18;;;;;;;6.50;3.60;;;;;;;2.37;76.44;98234.80;131667;1254;114710;-71
2023/03/11 08:25:21;;;;;;;5.60;4.20;;;;;;;2.38;76.29;98251.29;131701;1254;114697;-70
2023/03/11 08:28:25;;;;;;;7.10;4.40;;;;;;;2.39;76.28;98258.29;131705;1253;114051;-71
2023/03/11 08:31:30;;;;;;;4.70;3.90;;;;;;;2.42;76.37;98270.84;131804;1253;115230;-71
2023/03/11 08:34:34;;;;;;;4.80;3.30;;;;;;;2.47;76.63;98282.58;131490;1253;114613;-71
2023/03/11 08:37:37;;;;;;;3.80;3.50;;;;;;;2.49;76.39;98295.50;131685;1253;127817;-71
2023/03/11 08:40:40;;;;;;;4.30;3.70;;;;;;;2.48;76.22;98307.71;131671;1253;114712;-71
2023/03/11 08:43:43;;;;;;;4.20;3.80;;;;;;;2.49;76.09;98323.16;131710;1253;114578;-71
2023/03/11 08:46:46;;;;;;;4.80;3.90;;;;;;;2.48;76.22;98325.20;131694;1253;114652;-70
2023/03/11 08:49:48;;;;;;;4.60;4.10;;;;;;;2.46;76.20;98346.23;133435;1253;113099;-70
2023/03/11 08:52:51;;;;;;;7.00;5.00;;;;;;;2.45;76.19;98353.66;131745;1253;113322;-72
2023/03/11 08:55:54;;;;;;;6.60;3.60;;;;;;;2.45;76.37;98365.66;131782;1253;115375;-70
2023/03/11 08:58:56;;;;;;;7.40;5.10;;;;;;;2.45;76.10;98375.17;131370;1258;115241;-71
2023/03/11 09:01:59;;;;;;;7.10;4.50;;;;;;;2.45;76.29;98388.22;131656;1259;114850;-71
2023/03/11 09:05:03;;;;;;;7.30;5.00;;;;;;;2.46;76.26;98394.32;131672;1253;113451;-70
2023/03/11 09:08:05;;;;;;;6.50;4.70;;;;;;;2.47;76.29;98405.75;131703;1253;114721;-70
2023/03/11 09:11:12;;;;;;;6.90;4.80;;;;;;;2.47;76.23;98414.53;131672;1253;114704;-70
2023/03/11 09:14:15;;;;;;;7.20;4.60;;;;;;;2.48;76.27;98427.55;131706;1253;114737;-69
2023/03/11 09:17:18;;;;;;;5.90;3.50;;;;;;;2.51;76.28;98433.55;131716;1254;115167;-70
2023/03/11 09:20:21;;;;;;;7.10;4.50;;;;;;;2.55;76.31;98441.84;131745;1253;113333;-70
2023/03/11 09:23:24;;;;;;;4.80;3.30;;;;;;;2.57;76.36;98454.95;131732;1253;114635;-72
2023/03/11 09:26:27;;;;;;;4.20;3.20;;;;;;;2.58;76.22;98465.30;131661;1253;113195;-69
2023/03/11 09:29:30;;;;;;;4.30;3.80;;;;;;;2.55;75.94;98474.60;131658;1258;114703;-69
2023/03/11 09:32:33;;;;;;;7.10;5.70;;;;;;;2.52;75.95;98488.11;131722;1253;114839;-69
2023/03/11 09:35:38;;;;;;;6.40;4.40;;;;;;;2.52;76.19;98494.32;131710;1258;114729;-69
2023/03/11 09:38:42;;;;;;;4.50;3.50;;;;;;;2.56;76.23;98500.48;131650;1254;113152;-69
2023/03/11 09:42:18;;;;;;;4.00;2.90;;;;;;;2.62;76.05;98510.58;131624;1253;128729;-69
2023/03/11 09:45:27;;;;;;;3.20;2.80;;;;;;;2.74;76.09;98522.21;131041;1259;116076;-69
2023/03/11 09:49:21;;;;;;;4.00;2.40;;;;;;;2.85;75.96;98536.30;131156;1264;114755;-71
2023/03/11 09:53:03;;;;;;;3.40;3.10;;;;;;;2.96;75.64;98551.52;130295;1268;114689;-70
2023/03/11 09:56:09;;;;;;;4.40;2.70;;;;;;;3.03;75.23;98562.28;130413;1268;114613;-69
2023/03/11 09:59:21;;;;;;;3.50;2.70;;;;;;;3.09;75.12;98572.95;130505;1268;126683;-72
2023/03/11 10:02:25;;;;;;;5.50;3.40;;;;;;;3.17;74.44;98578.38;130342;1268;114553;-68
2023/03/11 10:05:29;;;;;;;6.20;4.50;;;;;;;3.25;74.54;98588.95;130491;1271;114750;-68
2023/03/11 10:09:02;;;;;;;4.70;3.30;;;;;;;3.32;74.50;98587.20;130564;1271;114865;-69
2023/03/11 10:12:24;;;;;;;8.00;4.40;;;;;;;3.33;74.13;98596.70;130428;1267;114666;-68
2023/03/11 10:15:47;;;;;;;7.60;4.00;;;;;;;3.33;74.08;98608.50;130435;1268;129986;-69
2023/03/11 10:19:08;;;;;;;6.70;3.70;;;;;;;3.34;74.32;98613.23;130491;1267;115232;-68
2023/03/11 10:22:25;;;;;;;5.50;3.20;;;;;;;3.36;74.10;98621.80;130812;1266;114689;-68
2023/03/11 10:25:49;;;;;;;5.00;3.20;;;;;;;3.29;73.97;98633.59;130587;1267;113353;-69
2023/03/11 10:29:08;;;;;;;8.90;5.20;;;;;;;3.27;74.22;98640.59;131500;1253;114061;-68
2023/03/11 10:32:28;;;;;;;6.00;4.00;;;;;;;3.32;74.49;98647.21;131693;1254;127864;-69
2023/03/11 10:35:44;;;;;;;6.00;3.50;;;;;;;3.38;74.46;98653.98;131630;1256;114818;-69
2023/03/11 10:38:50;;;;;;;5.70;3.80;;;;;;;3.43;74.43;98661.89;131523;1254;114680;-69
2023/03/11 10:42:03;;;;;;;3.30;2.80;;;;;;;3.50;74.32;98671.95;131651;1253;113880;-63
2023/03/11 10:45:12;;;;;;;5.20;3.80;;;;;;;3.60;74.04;98671.48;131643;1258;113561;-64
2023/03/11 10:48:19;;;;;;;6.80;4.10;;;;;;;3.68;73.59;98681.39;128339;1253;128045;-64
2023/03/11 10:51:27;;;;;;;5.50;3.40;;;;;;;3.78;73.73;98691.85;131656;1254;115869;-63
2023/03/11 10:54:40;;;;;;;5.20;3.40;;;;;;;3.84;73.14;98697.93;128884;1259;114125;-64
2023/03/11 10:57:43;;;;;;;6.50;3.40;;;;;;;3.87;72.74;98710.13;131559;1254;114554;-64
2023/03/11 11:01:16;;;;;;;4.90;3.40;;;;;;;3.92;72.51;98710.94;129315;1253;113330;-67
2023/03/11 11:05:12;;;;;;;5.40;3.40;;;;;;;4.05;72.33;98712.27;128346;1277;128169;-64
2023/03/11 11:08:20;;;;;;;5.50;3.70;;;;;;;4.22;72.03;98720.48;127890;1266;115354;-64
2023/03/11 11:11:27;;;;;;;5.60;3.90;;;;;;;4.32;71.85;98723.17;127639;1265;113698;-60
2023/03/11 11:14:50;;;;;;;5.60;4.20;;;;;;;4.43;71.86;98733.94;130633;1265;114476;-63
2023/03/11 11:18:00;;;;;;;7.40;4.40;;;;;;;4.51;71.25;98737.25;127507;1270;114739;-63
2023/03/11 11:21:16;;;;;;;5.70;5.00;;;;;;;4.53;71.15;98744.73;127629;1266;128246;-62
2023/03/11 11:24:30;;;;;;;7.00;4.20;;;;;;;4.54;70.61;98748.77;127875;1267;115923;-64
2023/03/11 11:27:38;;;;;;;6.30;4.20;;;;;;;4.58;70.52;98756.02;128003;1268;113302;-64
2023/03/11 11:30:59;;;;;;;3.20;2.40;;;;;;;4.70;69.77;98752.41;127966;1270;114574;-63
2023/03/11 11:34:21;;;;;;;7.30;4.00;;;;;;;4.78;69.52;98767.05;128202;1286;114756;-63
2023/03/11 11:37:33;;;;;;;4.90;3.40;;;;;;;4.73;68.74;98777.91;130957;1265;128959;-62
2023/03/11 11:40:43;;;;;;;5.30;3.90;;;;;;;4.50;69.02;98794.77;128180;1267;114810;-63
2023/03/11 11:44:00;;;;;;;6.60;4.00;;;;;;;4.30;69.68;98808.25;128272;1257;113240;-62
2023/03/11 11:47:16;;;;;;;10.10;5.00;;;;;;;4.24;70.48;98808.70;128725;1256;113251;-63
2023/03/11 11:50:35;;;;;;;7.00;4.30;;;;;;;4.38;70.76;98811.05;128418;1263;114796;-63
2023/03/11 11:53:45;;;;;;;6.80;4.20;;;;;;;4.54;70.68;98808.88;128345;1262;126723;-61
2023/03/11 11:56:52;;;;;;;4.60;3.80;;;;;;;4.74;70.88;98809.33;128621;1256;114957;-63
2023/03/11 11:59:58;;;;;;;4.80;3.50;;;;;;;4.90;70.33;98817.02;128526;1260;114452;-63
2023/03/11 12:03:22;;;;;;;6.80;3.50;;;;;;;5.02;70.23;98824.59;128654;1260;114735;-62
2023/03/11 12:06:42;;;;;;;4.30;3.30;;;;;;;5.14;69.74;98836.33;128402;1257;113274;-62
2023/03/11 12:10:14;;;;;;;4.10;3.20;;;;;;;5.13;69.34;98845.73;128615;1263;128666;-64
2023/03/11 12:13:27;;;;;;;4.40;3.70;;;;;;;5.01;68.89;98847.95;128502;1260;115196;-62
2023/03/11 12:16:59;;;;;;;4.80;3.60;;;;;;;4.88;68.40;98847.73;128661;1260;113504;-63
2023/03/11 12:20:26;;;;;;;7.30;5.10;;;;;;;4.69;68.34;98851.49;128572;1262;113456;-63
2023/03/11 12:23:41;;;;;;;8.30;4.50;;;;;;;4.53;68.29;98854.87;129888;1257;113269;-63
2023/03/11 12:26:52;;;;;;;6.90;4.10;;;;;;;4.40;68.25;98857.79;128754;1253;128883;-64
2023/03/11 12:30:07;;;;;;;5.30;3.40;;;;;;;4.28;68.55;98864.23;128700;1259;114737;-64
2023/03/11 12:33:13;;;;;;;7.00;4.90;;;;;;;4.16;68.80;98883.48;128504;1263;113335;-62
2023/03/11 12:36:47;;;;;;;6.30;4.60;;;;;;;4.13;69.55;98888.77;128520;1260;113871;-62
2023/03/11 12:39:53;;;;;;;6.20;3.70;;;;;;;4.23;69.72;98887.75;129111;1260;113246;-63
2023/03/11 12:42:57;;;;;;;5.20;3.20;;;;;;;4.35;69.59;98888.08;128865;1257;127782;-63
2023/03/11 12:46:05;;;;;;;6.90;3.40;;;;;;;4.47;69.33;98889.14;129715;1254;114742;-63
2023/03/11 12:49:15;;;;;;;6.70;3.90;;;;;;;4.57;68.95;98890.77;128724;1254;113350;-63
2023/03/11 12:52:25;;;;;;;3.90;3.50;;;;;;;4.63;68.90;98897.59;129039;1259;113418;-64
2023/03/11 12:55:34;;;;;;;4.70;3.40;;;;;;;4.60;68.40;98905.52;128546;1259;113341;-63
2023/03/11 12:59:15;;;;;;;4.50;3.10;;;;;;;4.52;67.70;98918.95;128676;1259;127582;-63
2023/03/11 13:02:21;;;;;;;5.40;2.80;;;;;;;4.37;67.71;98932.55;127953;1271;115962;-63
2023/03/11 13:05:30;;;;;;;4.30;3.10;;;;;;;4.30;68.01;98940.83;128070;1266;113294;-63
2023/03/11 13:08:55;;;;;;;6.40;4.40;;;;;;;4.30;68.41;98956.02;128025;1275;113554;-63
2023/03/11 13:12:02;;;;;;;5.90;3.70;;;;;;;4.30;68.90;98966.27;127771;1265;113562;-64
2023/03/11 13:15:35;;;;;;;;;;;;;;;4.20;68.36;98972.55;128214;1268;128041;-63
2023/03/11 13:18:43;;;;;;;6.30;5.10;;;;;;;4.00;68.44;98988.98;128401;1271;113487;-68
2023/03/11 13:21:46;;;;;;;7.40;6.50;;;;;;;3.91;68.28;98995.17;130302;1273;114880;-67
2023/03/11 13:24:50;;;;;;;8.40;5.60;;;;;;;3.85;67.97;98997.40;129887;1270;354757;-69
2023/03/11 13:28:13;;;;;;;7.10;5.50;;;;;;;3.81;67.89;98999.84;130173;1270;114753;-69
2023/03/11 13:31:34;;;;;;;7.40;4.80;;;;;;;3.76;67.99;99015.07;130199;1272;128888;-66
2023/03/11 13:34:56;;;;;;;8.40;4.60;;;;;;;3.74;67.95;99022.58;130188;1270;115313;-70
2023/03/11 13:37:59;;;;;;;5.70;4.20;;;;;;;3.73;67.57;99024.90;130298;1267;114871;-65
2023/03/11 13:41:10;;;;;;;8.90;5.30;;;;;;;3.69;67.43;99028.09;131014;1264;114805;-67
2023/03/11 13:44:20;;;;;;;8.20;5.40;;;;;;;3.61;66.99;99035.64;130925;1263;114811;-69
2023/03/11 13:47:25;;;;;;;6.60;4.40;;;;;;;3.52;66.40;99041.67;131000;1264;127789;-68
2023/03/11 13:50:48;;;;;;;5.40;3.70;;;;;;;3.44;66.46;99049.76;127930;1264;113656;-67
2023/03/11 13:53:56;;;;;;;12.70;4.90;;;;;;;3.40;66.55;99057.52;131037;1267;114688;-64
2023/03/11 13:57:01;;;;;;;9.80;5.30;;;;;;;3.41;66.29;99064.54;131600;1258;113847;-64
2023/03/11 14:00:16;;;;;;;13.20;7.40;;;;;;;3.40;66.57;99072.48;131382;1254;114527;-65
2023/03/11 14:03:21;;;;;;;16.70;8.70;;;;;;;3.39;66.37;99080.34;131580;1259;127846;-68
2023/03/11 14:06:29;;;;;;;12.80;6.90;;;;;;;3.33;66.09;99084.08;131648;1259;114715;-64
2023/03/11 14:09:32;;;;;;;9.90;5.70;;;;;;;3.27;65.77;99081.15;131688;1259;113217;-66
2023/03/11 14:12:36;;;;;;;12.60;5.80;;;;;;;3.20;65.90;99092.17;131631;1255;114696;-65
2023/03/11 14:16:05;;;;;;;12.20;5.60;;;;;;;3.16;65.55;99096.73;131362;1257;113586;-70
2023/03/11 14:19:16;;;;;;;9.70;5.60;;;;;;;3.12;65.60;99105.36;131581;1259;127954;-65
2023/03/11 14:22:19;;;;;;;9.70;5.20;;;;;;;3.11;65.77;99113.33;131609;1259;115320;-63
2023/03/11 14:25:26;;;;;;;9.90;5.30;;;;;;;3.14;66.08;99121.33;131749;1260;114728;-64
2023/03/11 14:28:33;;;;;;;10.10;4.80;;;;;;;3.17;65.65;99127.91;131734;1254;113160;-63
2023/03/11 14:31:38;;;;;;;6.40;3.60;;;;;;;3.16;65.31;99136.42;131665;1255;114390;-64